Time;durP1;ratioP1;P1;durP2;ratioP2;P2;SDS_P1;SDS_P2;PMS_P1;PMS_P2;Temp;Humidity;BMP_temperature;BMP_pressure;BME280_temperature;BME280_humidity;BME280_pressure;Samples;Min_cycle;Max_cycle;Signal;HPM_P1;HPM_P2
2020/12/29 00:02:07;;;;;;;25.55;8.70;;;;;;;11.66;72.95;101229.63;1725000;82;21154;-48
2020/12/29 00:04:35;;;;;;;23.47;8.70;;;;;;;11.66;72.91;101227.02;1724473;82;21181;-48
2020/12/29 00:07:03;;;;;;;24.15;8.70;;;;;;;11.66;72.85;101237.05;1724368;82;21145;-49
2020/12/29 00:09:34;;;;;;;22.82;8.60;;;;;;;11.67;72.96;101230.05;1724295;82;21149;-48
2020/12/29 00:12:04;;;;;;;23.38;8.25;;;;;;;11.68;72.85;101231.80;1724354;82;21161;-48
2020/12/29 00:14:32;;;;;;;31.48;9.75;;;;;;;11.68;72.64;101229.19;1724514;82;21553;-46
2020/12/29 00:17:00;;;;;;;18.00;8.18;;;;;;;11.68;72.51;101220.06;1720850;82;21129;-46
2020/12/29 00:19:28;;;;;;;19.75;9.20;;;;;;;11.66;72.37;101220.50;1723596;82;21177;-46
2020/12/29 00:21:58;;;;;;;20.20;8.40;;;;;;;11.63;72.28;101211.42;1720242;82;21299;-46
2020/12/29 00:24:26;;;;;;;27.73;9.80;;;;;;;11.62;72.27;101208.41;1724340;82;21145;-46
2020/12/29 00:26:56;;;;;;;24.77;9.15;;;;;;;11.59;72.04;101207.16;1721131;82;21141;-46
2020/12/29 00:29:25;;;;;;;25.32;9.18;;;;;;;11.52;71.74;101204.27;1725445;82;21141;-46
2020/12/29 00:31:53;;;;;;;24.90;9.05;;;;;;;11.41;71.69;101204.02;1727389;82;21318;-46
2020/12/29 00:34:22;;;;;;;24.72;9.33;;;;;;;11.32;71.93;101198.96;1727345;82;21173;-45
2020/12/29 00:36:52;;;;;;;33.08;9.75;;;;;;;11.28;71.95;101208.16;1726108;82;21601;-46
2020/12/29 00:39:20;;;;;;;21.42;8.68;;;;;;;11.24;72.06;101199.55;1724488;82;21157;-46
2020/12/29 00:41:50;;;;;;;21.30;9.38;;;;;;;11.24;72.08;101199.55;1717437;82;21137;-46
2020/12/29 00:44:19;;;;;;;20.37;9.15;;;;;;;11.25;72.15;101198.64;1710360;84;21660;-46
2020/12/29 00:46:47;;;;;;;22.87;9.45;;;;;;;11.28;72.21;101180.36;1727755;82;21577;-45
2020/12/29 00:49:15;;;;;;;20.10;9.78;;;;;;;11.31;71.84;101180.30;1727512;82;21117;-46
2020/12/29 00:51:43;;;;;;;21.55;8.48;;;;;;;11.27;71.72;101176.02;1717567;82;21149;-45
2020/12/29 00:54:12;;;;;;;20.35;8.50;;;;;;;11.25;71.71;101185.61;1719832;82;21152;-46
2020/12/29 00:56:42;;;;;;;21.07;9.30;;;;;;;11.25;71.85;101191.29;1711648;82;21153;-47
2020/12/29 00:59:11;;;;;;;28.98;10.32;;;;;;;11.28;72.13;101185.58;1728525;82;21141;-46
2020/12/29 01:01:40;;;;;;;20.43;8.93;;;;;;;11.33;72.27;101192.02;1704042;82;21157;-48
2020/12/29 01:04:10;;;;;;;22.62;9.75;;;;;;;11.37;72.23;101181.95;1721609;82;21157;-47
2020/12/29 01:06:40;;;;;;;19.35;8.55;;;;;;;11.40;72.15;101179.27;1724362;82;21157;-46
2020/12/29 01:09:10;;;;;;;15.75;8.50;;;;;;;11.43;72.09;101177.48;1722002;82;21144;-47
2020/12/29 01:11:39;;;;;;;18.82;8.68;;;;;;;11.45;72.20;101178.32;1716016;82;21198;-46
2020/12/29 01:14:09;;;;;;;18.75;8.58;;;;;;;11.51;72.17;101181.69;1723044;82;21177;-46
2020/12/29 01:16:39;;;;;;;21.12;8.43;;;;;;;11.54;72.08;101169.91;1721700;82;21161;-46
2020/12/29 01:19:08;;;;;;;18.55;7.65;;;;;;;11.57;71.92;101165.49;1702960;84;21125;-46
2020/12/29 01:21:36;;;;;;;23.98;8.85;;;;;;;11.60;71.93;101158.06;1715966;82;21168;-47
2020/12/29 01:24:04;;;;;;;19.37;8.48;;;;;;;11.62;71.95;101152.37;1725391;82;21168;-47
2020/12/29 01:26:33;;;;;;;22.20;8.90;;;;;;;11.64;71.82;101133.66;1727543;82;21177;-47
2020/12/29 01:29:01;;;;;;;13.83;7.53;;;;;;;11.65;71.70;101137.96;1727479;82;21168;-47
2020/12/29 01:31:31;;;;;;;20.80;8.75;;;;;;;11.65;71.59;101135.36;1726154;82;21142;-47
2020/12/29 01:34:00;;;;;;;24.02;8.03;;;;;;;11.64;71.63;101128.44;1724646;82;21190;-47
2020/12/29 01:36:28;;;;;;;20.10;7.67;;;;;;;11.65;71.71;101127.53;1723649;82;21164;-47
2020/12/29 01:38:56;;;;;;;20.77;9.58;;;;;;;11.63;71.72;101129.31;1723242;82;21181;-46
2020/12/29 01:41:24;;;;;;;20.70;8.00;;;;;;;11.66;71.73;101124.05;1737518;82;21153;-46
2020/12/29 01:43:52;;;;;;;16.23;7.35;;;;;;;11.68;71.65;101127.52;1724799;82;21149;-47
2020/12/29 01:46:20;;;;;;;18.37;7.72;;;;;;;11.69;71.65;101120.09;1726049;82;21229;-47
2020/12/29 01:48:48;;;;;;;19.20;7.62;;;;;;;11.67;71.70;101122.75;1726734;82;21165;-47
2020/12/29 01:51:16;;;;;;;14.68;7.83;;;;;;;11.69;71.60;101114.45;1714576;82;21156;-46
2020/12/29 01:53:45;;;;;;;18.12;7.67;;;;;;;11.72;71.53;101117.01;1723438;82;21177;-47
2020/12/29 01:56:13;;;;;;;16.93;6.97;;;;;;;11.73;71.39;101111.33;1718806;82;21153;-47
2020/12/29 01:58:45;;;;;;;18.05;7.60;;;;;;;11.74;71.33;101106.54;1724195;81;21210;-47
2020/12/29 02:01:14;;;;;;;20.27;7.83;;;;;;;11.75;71.31;101104.33;1724402;81;21569;-48
2020/12/29 02:03:42;;;;;;;17.30;7.25;;;;;;;11.73;71.27;101100.89;1722643;82;21597;-47
2020/12/29 02:06:11;;;;;;;12.53;6.87;;;;;;;11.73;71.25;101108.28;1718563;82;21335;-48
2020/12/29 02:08:40;;;;;;;16.37;7.47;;;;;;;11.73;71.10;101110.02;1724537;82;21141;-47
2020/12/29 02:11:09;;;;;;;18.55;7.53;;;;;;;11.70;71.07;101103.58;1724853;82;21601;-47
2020/12/29 02:13:41;;;;;;;17.20;7.62;;;;;;;11.68;71.14;101111.87;1710306;83;21581;-47
2020/12/29 02:16:09;;;;;;;22.58;8.73;;;;;;;11.67;71.23;101108.84;1720835;82;21145;-47
2020/12/29 02:18:38;;;;;;;18.15;6.83;;;;;;;11.67;71.24;101103.20;1727509;82;21193;-47
2020/12/29 02:21:06;;;;;;;15.93;6.20;;;;;;;11.69;71.38;101103.16;1725335;82;21542;-46
2020/12/29 02:23:34;;;;;;;15.75;6.33;;;;;;;11.69;71.48;101103.16;1725907;81;21185;-48
2020/12/29 02:26:03;;;;;;;14.53;6.62;;;;;;;11.68;71.61;101097.55;1726931;82;21192;-47
2020/12/29 02:28:31;;;;;;;15.50;6.12;;;;;;;11.71;71.64;101098.77;1727408;82;21323;-47
2020/12/29 02:31:00;;;;;;;19.12;6.60;;;;;;;11.71;71.58;101094.86;1727456;82;21307;-47
2020/12/29 02:33:28;;;;;;;19.35;7.05;;;;;;;11.72;71.59;101092.68;1726261;82;21291;-47
2020/12/29 02:35:56;;;;;;;16.60;7.22;;;;;;;11.71;71.47;101088.34;1724357;82;21323;-47
2020/12/29 02:38:24;;;;;;;14.55;5.70;;;;;;;11.71;71.44;101085.73;1724331;82;21597;-47
2020/12/29 02:40:53;;;;;;;13.90;5.65;;;;;;;11.69;71.47;101088.81;1723982;82;21287;-47
2020/12/29 02:43:22;;;;;;;17.30;6.55;;;;;;;11.68;71.46;101088.42;1724643;82;21295;-47
2020/12/29 02:45:50;;;;;;;16.15;6.62;;;;;;;11.66;71.56;101087.56;1724788;82;21156;-47
2020/12/29 02:48:18;;;;;;;21.90;6.40;;;;;;;11.65;71.73;101075.41;1726921;82;21608;-47
2020/12/29 02:50:46;;;;;;;13.75;6.00;;;;;;;11.64;71.77;101077.61;1725458;82;21197;-47
2020/12/29 02:53:14;;;;;;;14.65;5.87;;;;;;;11.63;71.87;101078.05;1724726;82;21141;-47
2020/12/29 02:55:43;;;;;;;12.58;5.28;;;;;;;11.63;71.92;101080.66;1715480;82;21164;-47
2020/12/29 02:58:11;;;;;;;15.30;6.53;;;;;;;11.64;71.99;101076.31;1722230;82;21161;-47
2020/12/29 03:00:40;;;;;;;13.38;5.20;;;;;;;11.64;72.00;101084.13;1724149;81;21177;-47
2020/12/29 03:03:08;;;;;;;13.85;5.25;;;;;;;11.65;72.06;101081.92;1711878;82;21197;-47
2020/12/29 03:05:36;;;;;;;16.75;5.97;;;;;;;11.65;72.05;101080.62;1726388;82;21157;-48
2020/12/29 03:08:04;;;;;;;21.55;6.85;;;;;;;11.66;72.07;101074.13;1726724;82;21185;-47
2020/12/29 03:10:33;;;;;;;13.10;5.05;;;;;;;11.67;72.03;101078.88;1727446;82;21169;-47
2020/12/29 03:13:01;;;;;;;15.93;5.62;;;;;;;11.69;71.96;101078.39;1727432;82;21351;-46
2020/12/29 03:15:29;;;;;;;18.77;6.20;;;;;;;11.71;71.83;101084.43;1725805;82;21172;-47
2020/12/29 03:17:58;;;;;;;23.27;6.10;;;;;;;11.71;71.74;101080.08;1724327;82;21185;-47
2020/12/29 03:20:26;;;;;;;16.23;5.95;;;;;;;11.73;71.65;101073.52;1714069;82;21581;-48
2020/12/29 03:22:54;;;;;;;11.70;5.45;;;;;;;11.73;71.60;101072.22;1722680;82;21162;-49
2020/12/29 03:25:22;;;;;;;15.23;5.70;;;;;;;11.75;71.63;101075.66;1728851;82;21137;-47
2020/12/29 03:27:51;;;;;;;14.73;6.17;;;;;;;11.75;71.67;101074.34;1714419;82;21149;-47
2020/12/29 03:30:19;;;;;;;15.32;5.15;;;;;;;11.74;71.58;101064.83;1724547;82;21169;-47
2020/12/29 03:32:47;;;;;;;18.55;6.30;;;;;;;11.75;71.53;101078.26;1724335;82;21146;-48
2020/12/29 03:35:16;;;;;;;17.92;5.70;;;;;;;11.72;71.46;101083.12;1724389;82;21188;-47
2020/12/29 03:37:44;;;;;;;12.55;5.20;;;;;;;11.71;71.47;101080.52;1724787;82;21315;-48
2020/12/29 03:40:14;;;;;;;18.30;5.85;;;;;;;11.66;71.67;101082.34;1724227;82;21589;-47
2020/12/29 03:42:42;;;;;;;11.50;5.15;;;;;;;11.62;71.93;101084.61;1725903;82;21129;-47
2020/12/29 03:45:10;;;;;;;15.45;5.20;;;;;;;11.58;72.18;101085.09;1727515;82;21193;-47
2020/12/29 03:47:39;;;;;;;15.18;5.33;;;;;;;11.57;72.35;101082.53;1727283;82;21177;-47
2020/12/29 03:50:07;;;;;;;19.37;6.05;;;;;;;11.58;72.43;101082.95;1723462;82;21148;-47
2020/12/29 03:52:35;;;;;;;16.65;4.78;;;;;;;11.60;72.44;101079.88;1727464;82;21157;-47
2020/12/29 03:55:03;;;;;;;21.50;6.15;;;;;;;11.62;72.53;101080.27;1711295;82;21181;-47
2020/12/29 03:57:32;;;;;;;16.82;5.47;;;;;;;11.65;72.45;101075.41;1723262;82;21151;-47
2020/12/29 04:00:00;;;;;;;17.17;5.72;;;;;;;11.68;72.37;101079.30;1731275;81;21168;-47
2020/12/29 04:02:28;;;;;;;16.55;5.37;;;;;;;11.70;72.35;101073.61;1735475;82;21145;-48
2020/12/29 04:04:56;;;;;;;18.25;5.47;;;;;;;11.73;72.35;101078.73;1735392;82;21278;-48
2020/12/29 04:07:24;;;;;;;16.02;5.87;;;;;;;11.73;72.20;101082.21;1732759;82;21137;-48
2020/12/29 04:09:53;;;;;;;17.70;5.60;;;;;;;11.74;72.15;101084.38;1732671;82;21181;-47
2020/12/29 04:12:21;;;;;;;20.50;6.10;;;;;;;11.71;72.20;101080.52;1731970;82;21161;-47
2020/12/29 04:14:51;;;;;;;16.80;4.75;;;;;;;11.69;72.25;101081.00;1732371;82;21156;-47
2020/12/29 04:17:19;;;;;;;15.10;5.67;;;;;;;11.67;72.34;101085.39;1732649;82;21306;-48
2020/12/29 04:19:47;;;;;;;14.50;5.17;;;;;;;11.74;72.39;101090.89;1729555;82;21152;-47
2020/12/29 04:22:15;;;;;;;21.85;5.78;;;;;;;11.84;72.11;101089.81;1731971;82;21279;-47
2020/12/29 04:24:43;;;;;;;13.28;5.22;;;;;;;11.89;71.81;101089.28;1732421;81;21140;-47
2020/12/29 04:27:12;;;;;;;19.20;5.83;;;;;;;11.92;71.51;101082.67;1732426;82;21164;-47
2020/12/29 04:29:40;;;;;;;16.45;5.47;;;;;;;11.93;71.35;101077.89;1732680;82;21159;-47
2020/12/29 04:32:08;;;;;;;14.07;5.30;;;;;;;11.94;71.36;101079.58;1732939;81;21272;-47
2020/12/29 04:34:37;;;;;;;17.82;5.37;;;;;;;11.96;71.39;101077.36;1734728;82;21153;-47
2020/12/29 04:37:07;;;;;;;15.60;5.95;;;;;;;11.99;71.29;101071.23;1735623;82;21141;-47
2020/12/29 04:39:36;;;;;;;13.35;4.80;;;;;;;12.01;71.18;101068.97;1735386;82;21204;-47
2020/12/29 04:42:06;;;;;;;17.40;5.53;;;;;;;12.03;71.18;101075.48;1726648;82;21537;-47
2020/12/29 04:51:30;;;;;;;12.93;4.70;;;;;;;12.12;70.78;101057.00;1771243;79;23758;-48
2020/12/29 04:53:58;;;;;;;19.52;5.53;;;;;;;12.05;70.71;101063.27;1753943;82;21176;-47
2020/12/29 04:56:32;;;;;;;14.05;5.15;;;;;;;12.04;70.68;101068.05;1744572;82;21148;-47
2020/12/29 04:59:03;;;;;;;19.25;5.50;;;;;;;12.00;70.68;101070.32;1735517;82;21282;-47
2020/12/29 05:01:33;;;;;;;16.05;4.37;;;;;;;11.93;70.84;101063.08;1693803;84;21217;-47
2020/12/29 05:04:02;;;;;;;14.33;4.35;;;;;;;11.79;71.48;101069.48;1694302;84;21178;-47
2020/12/29 05:06:30;;;;;;;15.78;4.55;;;;;;;11.74;71.62;101075.26;1694645;84;21233;-48
2020/12/29 05:08:59;;;;;;;13.18;5.17;;;;;;;11.73;71.77;101090.47;1690595;84;21187;-47
2020/12/29 05:11:27;;;;;;;16.27;4.72;;;;;;;11.74;71.83;101093.50;1697224;84;21324;-47
2020/12/29 05:14:06;;;;;;;17.30;5.12;;;;;;;11.80;71.94;101093.38;1771459;79;23102;-47
2020/12/29 05:16:40;;;;;;;17.05;6.03;;;;;;;11.78;71.85;101101.23;1740021;82;21149;-48
2020/12/29 05:19:10;;;;;;;22.02;5.60;;;;;;;11.80;71.66;101097.28;1710136;83;21336;-48
2020/12/29 05:21:45;;;;;;;19.15;6.03;;;;;;;11.87;71.49;101092.36;1756463;79;28367;-47
2020/12/29 05:24:17;;;;;;;23.22;5.33;;;;;;;11.88;71.39;101091.45;1748211;82;21144;-47
2020/12/29 05:26:48;;;;;;;18.27;5.45;;;;;;;11.93;71.18;101088.31;1734433;82;21286;-47
2020/12/29 05:29:16;;;;;;;14.87;4.83;;;;;;;11.93;71.11;101084.41;1734480;82;21169;-47
2020/12/29 05:31:45;;;;;;;18.37;5.22;;;;;;;11.91;71.03;101080.50;1741099;82;21310;-48
2020/12/29 05:34:28;;;;;;;16.02;5.42;;;;;;;11.89;70.97;101080.16;1740490;82;21659;-46
2020/12/29 05:37:02;;;;;;;16.02;5.05;;;;;;;11.91;71.09;101075.76;1770346;79;23066;-48
2020/12/29 05:39:30;;;;;;;15.00;5.25;;;;;;;11.85;71.21;101079.34;1739873;82;21291;-47
2020/12/29 05:41:58;;;;;;;15.55;5.00;;;;;;;11.82;71.35;101082.03;1738284;82;21152;-47
2020/12/29 05:44:28;;;;;;;11.43;4.90;;;;;;;11.81;71.57;101079.47;1733101;82;21200;-48
2020/12/29 05:47:01;;;;;;;13.58;5.00;;;;;;;11.79;71.81;101078.17;1742072;82;21184;-47
2020/12/29 05:49:31;;;;;;;14.33;4.78;;;;;;;11.77;71.99;101075.17;1736207;82;21183;-47
2020/12/29 05:51:59;;;;;;;20.08;5.40;;;;;;;11.77;72.10;101086.91;1714217;82;21148;-47
2020/12/29 05:54:28;;;;;;;15.68;4.62;;;;;;;11.77;72.20;101088.20;1747503;82;21151;-48
2020/12/29 05:56:56;;;;;;;14.75;5.20;;;;;;;11.79;72.18;101082.08;1744553;82;21193;-47
2020/12/29 05:59:25;;;;;;;16.30;5.10;;;;;;;11.82;72.03;101088.98;1733843;82;21180;-48
2020/12/29 06:01:53;;;;;;;15.75;6.33;;;;;;;11.86;71.84;101093.23;1745187;82;21305;-47
2020/12/29 06:04:21;;;;;;;17.45;5.65;;;;;;;11.90;71.44;101100.11;1737704;82;21148;-47
2020/12/29 06:06:50;;;;;;;18.57;6.47;;;;;;;11.93;71.19;101092.23;1737989;82;21160;-47
2020/12/29 06:09:20;;;;;;;15.10;5.25;;;;;;;11.96;71.16;101090.84;1738694;82;21187;-46
2020/12/29 06:11:53;;;;;;;24.07;6.65;;;;;;;11.97;71.15;101092.58;1738662;81;21200;-47
2020/12/29 06:14:26;;;;;;;17.90;6.00;;;;;;;11.98;71.21;101092.53;1734853;82;21117;-46
2020/12/29 06:16:55;;;;;;;14.98;5.25;;;;;;;12.01;71.11;101095.52;1741022;82;21132;-46
2020/12/29 06:19:28;;;;;;;18.37;5.37;;;;;;;12.03;70.99;101096.34;1737018;82;21164;-47
2020/12/29 06:22:10;;;;;;;14.78;5.50;;;;;;;12.05;70.85;101101.08;1733884;82;21148;-47
2020/12/29 06:24:41;;;;;;;19.98;6.87;;;;;;;12.06;70.71;101093.66;1737744;82;21152;-47
2020/12/29 06:27:11;;;;;;;17.00;6.08;;;;;;;12.07;70.66;101100.60;1717428;83;21681;-47
2020/12/29 06:29:44;;;;;;;16.87;6.25;;;;;;;12.07;70.74;101095.39;1718029;83;21184;-48
2020/12/29 06:32:15;;;;;;;20.30;6.40;;;;;;;12.05;70.93;101091.52;1699099;84;21298;-47
2020/12/29 06:34:49;;;;;;;18.40;6.45;;;;;;;12.10;70.82;101105.73;1785333;79;28109;-47
2020/12/29 06:37:25;;;;;;;19.20;6.40;;;;;;;12.11;70.82;101100.94;1774022;80;21187;-49
2020/12/29 06:39:58;;;;;;;18.02;7.12;;;;;;;12.18;70.75;101092.06;1775238;80;21136;-47
2020/12/29 06:42:26;;;;;;;20.88;6.83;;;;;;;12.19;70.75;101098.58;1775064;80;21104;-47
2020/12/29 06:44:57;;;;;;;22.42;6.58;;;;;;;12.19;70.75;101083.37;1774793;80;21155;-47
2020/12/29 06:47:27;;;;;;;22.55;6.67;;;;;;;12.19;70.71;101079.45;1712166;83;21234;-48
2020/12/29 06:49:55;;;;;;;22.50;7.37;;;;;;;12.19;70.78;101082.06;1712398;83;21598;-47
2020/12/29 06:52:32;;;;;;;20.52;6.45;;;;;;;12.17;70.89;101076.02;1717137;83;21643;-47
2020/12/29 06:55:06;;;;;;;23.32;7.65;;;;;;;12.20;71.00;101074.19;1778508;79;22920;-47
2020/12/29 06:57:40;;;;;;;22.95;6.83;;;;;;;12.16;71.09;101069.94;1739620;82;21177;-47
2020/12/29 07:00:16;;;;;;;20.32;6.65;;;;;;;12.17;71.13;101073.41;1740410;82;21172;-47
2020/12/29 07:02:50;;;;;;;20.10;6.60;;;;;;;12.21;71.02;101072.45;1740328;82;21314;-48
2020/12/29 07:05:29;;;;;;;23.75;6.85;;;;;;;12.23;70.95;101068.05;1736768;82;21291;-47
2020/12/29 07:08:06;;;;;;;17.92;6.62;;;;;;;12.27;70.78;101073.61;1736235;82;21109;-47
2020/12/29 07:10:41;;;;;;;20.85;5.72;;;;;;;12.28;70.80;101072.73;1741298;82;21601;-48
2020/12/29 07:13:17;;;;;;;22.22;6.03;;;;;;;12.28;70.76;101068.81;1734410;82;21168;-47
2020/12/29 07:15:53;;;;;;;24.32;6.35;;;;;;;12.31;70.80;101073.94;1742978;82;21152;-47
2020/12/29 07:18:26;;;;;;;19.57;7.05;;;;;;;12.33;70.60;101064.33;1733215;82;21164;-47
2020/12/29 07:20:56;;;;;;;22.42;7.20;;;;;;;12.37;70.51;101070.32;1751187;80;21618;-46
2020/12/29 07:23:30;;;;;;;18.07;5.90;;;;;;;12.38;70.41;101065.53;1745082;82;21192;-47
2020/12/29 07:25:59;;;;;;;17.10;7.15;;;;;;;12.38;70.32;101060.30;1738936;82;21644;-48
2020/12/29 07:28:30;;;;;;;19.35;6.20;;;;;;;12.37;70.30;101058.14;1743693;82;21192;-47
2020/12/29 07:30:59;;;;;;;20.45;5.75;;;;;;;12.35;70.41;101066.45;1740280;82;21148;-48
2020/12/29 07:33:27;;;;;;;21.02;6.80;;;;;;;12.38;70.48;101053.34;1734834;82;21298;-46
2020/12/29 07:35:55;;;;;;;20.55;6.72;;;;;;;12.39;70.51;101063.31;1735171;82;21140;-47
2020/12/29 07:38:26;;;;;;;17.17;5.62;;;;;;;12.43;70.38;101065.81;1731951;82;21286;-46
2020/12/29 07:40:54;;;;;;;18.92;5.45;;;;;;;12.45;70.47;101062.72;1743688;82;21200;-47
2020/12/29 07:43:22;;;;;;;24.77;6.60;;;;;;;12.48;70.49;101058.75;1735436;82;21315;-47
2020/12/29 07:45:50;;;;;;;19.32;6.17;;;;;;;12.52;70.42;101077.34;1738743;82;21148;-47
2020/12/29 07:48:19;;;;;;;21.50;6.17;;;;;;;12.57;70.27;101085.91;1740013;82;21573;-47
2020/12/29 07:50:51;;;;;;;21.55;5.37;;;;;;;12.62;70.09;101098.41;1741243;82;21330;-47
2020/12/29 07:53:19;;;;;;;23.22;5.92;;;;;;;12.66;69.85;101098.75;1739474;82;21204;-47
2020/12/29 07:55:47;;;;;;;20.10;5.78;;;;;;;12.69;69.70;101110.44;1738978;82;21427;-46
2020/12/29 07:58:16;;;;;;;22.07;7.22;;;;;;;12.72;69.55;101105.13;1742264;82;21156;-47
2020/12/29 08:00:44;;;;;;;19.77;5.97;;;;;;;12.74;69.28;101117.69;1736626;82;21176;-47
2020/12/29 08:03:13;;;;;;;18.07;6.95;;;;;;;12.75;69.11;101112.03;1738858;82;21145;-47
2020/12/29 08:05:41;;;;;;;20.40;5.58;;;;;;;12.77;69.10;101109.80;1739098;81;21157;-46
2020/12/29 08:08:10;;;;;;;24.87;6.75;;;;;;;12.80;68.99;101121.45;1737185;82;21310;-48
2020/12/29 08:10:44;;;;;;;25.17;6.70;;;;;;;12.85;68.86;101133.09;1736817;82;21101;-47
2020/12/29 08:13:14;;;;;;;20.62;6.25;;;;;;;12.87;68.64;101138.70;1742275;82;21157;-46
2020/12/29 08:15:43;;;;;;;17.70;5.47;;;;;;;12.89;68.56;101148.66;1732990;82;21200;-47
2020/12/29 08:18:16;;;;;;;20.62;5.80;;;;;;;12.88;68.56;101154.76;1744829;82;21112;-47
2020/12/29 08:20:48;;;;;;;25.02;6.05;;;;;;;12.89;68.63;101155.19;1725554;82;21164;-46
2020/12/29 08:23:18;;;;;;;22.13;6.22;;;;;;;12.90;68.66;101148.22;1739286;82;21587;-48
2020/12/29 08:25:57;;;;;;;16.52;5.70;;;;;;;12.91;68.50;101156.00;1730642;82;21144;-47
2020/12/29 08:28:33;;;;;;;18.35;5.92;;;;;;;12.95;68.37;101152.42;1804885;79;23266;-47
2020/12/29 08:31:02;;;;;;;18.45;5.25;;;;;;;12.91;68.30;101152.09;1778418;80;21196;-46
2020/12/29 08:33:31;;;;;;;30.48;6.87;;;;;;;12.90;68.45;101148.22;1780141;80;21609;-46
2020/12/29 08:36:01;;;;;;;25.37;6.83;;;;;;;12.91;68.38;101147.30;1779973;80;21144;-47
2020/12/29 08:38:44;;;;;;;23.87;5.95;;;;;;;12.93;68.33;101148.98;1770696;80;21592;-47
2020/12/29 08:41:31;;;;;;;17.05;5.37;;;;;;;12.95;68.15;101140.66;1780257;80;21573;-48
2020/12/29 08:44:01;;;;;;;31.77;7.15;;;;;;;12.97;67.97;101142.79;1742662;80;21313;-47
2020/12/29 08:46:34;;;;;;;19.57;6.00;;;;;;;12.96;68.08;101143.67;1783642;80;21132;-47
2020/12/29 08:49:05;;;;;;;24.60;5.70;;;;;;;12.96;68.09;101146.28;1778597;80;21140;-47
2020/12/29 08:51:42;;;;;;;20.02;5.72;;;;;;;12.97;68.13;101140.17;1768192;80;21116;-47
2020/12/29 08:54:15;;;;;;;19.32;6.62;;;;;;;12.99;68.11;101138.83;1722731;83;21302;-46
2020/12/29 08:56:43;;;;;;;19.60;6.30;;;;;;;12.99;68.13;101134.47;1715288;83;21196;-47
2020/12/29 08:59:22;;;;;;;22.32;5.72;;;;;;;13.02;68.05;101133.06;1708634;83;21184;-46
2020/12/29 09:01:57;;;;;;;24.45;6.58;;;;;;;13.05;67.99;101119.11;1713309;83;21631;-48
2020/12/29 09:04:37;;;;;;;24.52;5.95;;;;;;;13.08;67.83;101121.66;1707923;83;21196;-47
2020/12/29 09:07:16;;;;;;;;;;;;;;;13.08;67.73;101118.56;1698688;83;21562;-47
2020/12/29 09:10:07;;;;;;;21.65;5.87;;;;;;;13.12;67.62;101109.36;1711425;83;20251;-47
2020/12/29 09:12:35;;;;;;;19.85;5.40;;;;;;;13.13;67.56;101105.39;1711835;83;21166;-47
2020/12/29 09:15:08;;;;;;;21.90;5.95;;;;;;;13.17;67.43;101104.88;1711277;83;21180;-47
2020/12/29 09:17:42;;;;;;;21.50;6.30;;;;;;;13.18;67.27;101111.80;1711338;83;21152;-47
2020/12/29 09:20:23;;;;;;;18.25;5.67;;;;;;;13.20;67.08;101104.78;1710971;83;21172;-47
2020/12/29 09:23:11;;;;;;;22.52;5.25;;;;;;;13.24;66.94;101103.80;1770477;79;22646;-47
2020/12/29 09:25:44;;;;;;;17.70;5.47;;;;;;;13.17;66.82;101112.25;1741138;82;21184;-46
2020/12/29 09:28:19;;;;;;;19.30;4.87;;;;;;;13.18;66.72;101117.03;1741011;82;21220;-47
2020/12/29 09:31:05;;;;;;;19.77;5.45;;;;;;;13.15;66.77;101113.21;1740001;82;21319;-47
2020/12/29 09:33:34;;;;;;;23.80;6.78;;;;;;;13.13;66.84;101107.17;1740804;82;21160;-47
2020/12/29 09:36:03;;;;;;;22.40;5.75;;;;;;;13.13;66.93;101104.55;1738863;82;21188;-47
2020/12/29 09:38:32;;;;;;;26.80;5.28;;;;;;;13.15;66.92;101104.06;1738588;81;21577;-47
2020/12/29 09:41:02;;;;;;;21.30;6.15;;;;;;;13.18;66.82;101098.30;1737907;81;21144;-47
2020/12/29 09:43:33;;;;;;;21.02;6.25;;;;;;;13.20;66.67;101103.48;1716022;83;21193;-47
2020/12/29 09:46:01;;;;;;;20.90;5.87;;;;;;;13.18;66.68;101106.58;1717670;83;21183;-47
2020/12/29 09:48:29;;;;;;;19.85;6.22;;;;;;;13.20;66.59;101104.78;1699810;84;21305;-47
2020/12/29 09:50:58;;;;;;;25.70;7.28;;;;;;;13.21;66.55;101093.45;1715712;83;21160;-47
2020/12/29 09:53:26;;;;;;;22.82;6.58;;;;;;;13.23;66.40;101094.27;1719682;83;21219;-47
2020/12/29 09:55:57;;;;;;;20.97;7.20;;;;;;;13.23;66.34;101090.34;1728861;83;21309;-47
2020/12/29 09:58:25;;;;;;;27.13;6.25;;;;;;;13.23;66.25;101102.10;1716056;83;21234;-46
2020/12/29 10:00:53;;;;;;;20.30;6.70;;;;;;;13.23;66.15;101100.80;1714872;83;21158;-47
2020/12/29 10:03:22;;;;;;;22.95;5.60;;;;;;;13.22;66.07;101095.14;1714616;83;21214;-47
2020/12/29 10:05:50;;;;;;;20.40;5.55;;;;;;;13.21;66.07;101105.20;1696141;83;21198;-47
2020/12/29 10:08:18;;;;;;;25.55;6.67;;;;;;;13.16;66.06;101104.02;1697896;84;21149;-48
2020/12/29 10:10:46;;;;;;;27.70;6.40;;;;;;;13.14;66.10;101101.03;1697690;84;21189;-48
2020/12/29 10:13:15;;;;;;;16.30;5.70;;;;;;;13.12;66.23;101102.83;1696179;84;21162;-47
2020/12/29 10:15:44;;;;;;;20.90;5.97;;;;;;;13.11;66.28;101105.05;1696353;84;21208;-47
2020/12/29 10:18:12;;;;;;;21.60;6.33;;;;;;;13.13;66.22;101104.55;1696546;82;21186;-47
2020/12/29 10:20:40;;;;;;;23.77;6.42;;;;;;;13.15;66.21;101097.53;1732286;83;21257;-46
2020/12/29 10:23:08;;;;;;;26.07;7.30;;;;;;;13.19;66.06;101097.86;1706435;83;21144;-48
2020/12/29 10:25:36;;;;;;;27.55;7.25;;;;;;;13.23;65.76;101097.70;1706239;83;21180;-47
2020/12/29 10:28:05;;;;;;;20.43;5.97;;;;;;;13.26;65.56;101096.77;1704985;83;21121;-47
2020/12/29 10:30:33;;;;;;;25.25;6.35;;;;;;;13.29;65.46;101100.63;1704934;83;21133;-47
2020/12/29 10:33:01;;;;;;;24.12;7.35;;;;;;;13.32;65.44;101104.00;1707380;83;21163;-47
2020/12/29 10:35:30;;;;;;;24.15;6.60;;;;;;;13.36;65.45;101095.62;1705988;83;21152;-47
2020/12/29 10:37:58;;;;;;;23.27;5.83;;;;;;;13.41;65.37;101091.13;1707902;83;21286;-46
2020/12/29 10:40:27;;;;;;;25.57;6.25;;;;;;;13.44;65.21;101086.67;1722227;82;21310;-47
2020/12/29 10:42:55;;;;;;;24.90;5.78;;;;;;;13.49;65.08;101084.80;1730102;82;21153;-47
2020/12/29 10:45:24;;;;;;;21.55;6.25;;;;;;;13.52;65.06;101095.15;1733780;82;21149;-47
2020/12/29 10:47:52;;;;;;;25.92;5.90;;;;;;;13.53;64.95;101092.95;1735477;82;21153;-47
2020/12/29 10:50:20;;;;;;;25.10;6.35;;;;;;;13.54;64.87;101092.52;1731776;82;21160;-47
2020/12/29 10:52:48;;;;;;;25.30;8.35;;;;;;;13.55;64.79;101095.52;1735597;82;21161;-47
2020/12/29 10:55:17;;;;;;;26.10;5.97;;;;;;;13.52;64.70;101090.36;1721714;82;21192;-47
2020/12/29 10:57:45;;;;;;;19.62;4.90;;;;;;;13.49;64.75;101097.00;1732364;82;21152;-47
2020/12/29 11:00:13;;;;;;;16.00;4.70;;;;;;;13.47;64.77;101104.03;1738283;82;21589;-47
2020/12/29 11:02:41;;;;;;;24.20;6.55;;;;;;;13.47;64.79;101106.65;1727108;82;21156;-46
2020/12/29 11:05:10;;;;;;;23.85;6.10;;;;;;;13.48;64.70;101110.95;1732366;82;21330;-47
2020/12/29 11:07:39;;;;;;;27.55;6.35;;;;;;;13.47;64.51;101110.12;1728590;82;21554;-46
2020/12/29 11:10:07;;;;;;;21.85;6.30;;;;;;;13.45;64.45;101108.45;1731369;82;21263;-47
2020/12/29 11:12:35;;;;;;;24.57;5.78;;;;;;;13.41;64.44;101110.73;1732009;82;21577;-47
2020/12/29 11:15:03;;;;;;;19.98;5.30;;;;;;;13.35;64.54;101107.86;1732761;82;21334;-46
2020/12/29 11:17:32;;;;;;;26.12;7.28;;;;;;;13.39;64.47;101113.84;1732057;81;21275;-47
2020/12/29 11:20:04;;;;;;;20.75;5.70;;;;;;;13.27;64.88;101112.41;1729335;82;21188;-47
2020/12/29 11:22:32;;;;;;;24.82;6.40;;;;;;;13.26;65.12;101109.84;1730354;81;21141;-46
2020/12/29 11:25:01;;;;;;;26.55;6.33;;;;;;;13.27;65.15;101114.19;1725231;82;21169;-47
2020/12/29 11:27:29;;;;;;;20.92;5.70;;;;;;;13.28;65.06;101114.58;1724412;82;21577;-47
2020/12/29 11:30:00;;;;;;;18.65;5.78;;;;;;;13.29;64.97;101112.39;1723895;82;21162;-47
2020/12/29 11:32:28;;;;;;;22.30;5.75;;;;;;;13.27;64.91;101108.95;1724683;82;21220;-47
2020/12/29 11:34:56;;;;;;;21.55;6.53;;;;;;;13.26;64.90;101109.84;1724426;82;21153;-45
2020/12/29 11:37:26;;;;;;;25.97;6.92;;;;;;;13.24;65.01;101109.03;1724784;82;21101;-46